Time;durP1;ratioP1;P1;durP2;ratioP2;P2;SDS_P1;SDS_P2;PMS_P1;PMS_P2;Temp;Humidity;BMP_temperature;BMP_pressure;BME280_temperature;BME280_humidity;BME280_pressure;Samples;Min_cycle;Max_cycle;Signal;HPM_P1;HPM_P2
2023/11/17 00:01:47;;;;;;;8.52;5.80;;;7.20;99.90;;;;;;5056223;28;20125;-86
2023/11/17 00:04:14;;;;;;;8.25;5.38;;;7.20;99.90;;;;;;5072524;28;20025;-86
2023/11/17 00:06:40;;;;;;;6.85;5.35;;;7.20;99.90;;;;;;5055950;28;20021;-86
2023/11/17 00:09:11;;;;;;;6.15;5.53;;;7.20;99.90;;;;;;5061055;28;20028;-86
2023/11/17 00:11:41;;;;;;;8.98;5.50;;;7.20;99.90;;;;;;5053281;28;20078;-86
2023/11/17 00:14:10;;;;;;;7.40;5.55;;;7.20;99.90;;;;;;5052961;28;20017;-86
2023/11/17 00:16:38;;;;;;;6.90;5.45;;;7.10;99.90;;;;;;5054491;28;20028;-86
2023/11/17 00:19:06;;;;;;;6.57;5.20;;;7.10;99.90;;;;;;5052854;28;20088;-85
2023/11/17 00:21:34;;;;;;;6.10;5.20;;;7.10;99.90;;;;;;5067365;28;20511;-86
2023/11/17 00:24:00;;;;;;;6.35;5.65;;;7.10;99.90;;;;;;5055600;28;20013;-86
2023/11/17 00:26:26;;;;;;;6.47;4.80;;;7.10;99.90;;;;;;5065361;28;20080;-85
2023/11/17 00:28:54;;;;;;;5.57;5.00;;;7.10;99.90;;;;;;5069452;28;20122;-85
2023/11/17 00:31:21;;;;;;;5.90;5.10;;;7.10;99.90;;;;;;5078408;28;20045;-85
2023/11/17 00:33:52;;;;;;;8.10;6.05;;;7.10;99.90;;;;;;5078745;28;20031;-83
2023/11/17 00:36:18;;;;;;;6.78;5.43;;;7.10;99.90;;;;;;5077755;28;20021;-86
2023/11/17 00:38:44;;;;;;;8.35;5.97;;;7.10;99.90;;;;;;5065277;28;20024;-85
2023/11/17 00:41:12;;;;;;;7.38;5.70;;;7.00;99.90;;;;;;5072086;28;20082;-86
2023/11/17 00:43:39;;;;;;;6.00;5.13;;;7.00;99.90;;;;;;5052737;28;20021;-86
2023/11/17 00:46:05;;;;;;;6.72;5.82;;;7.00;99.90;;;;;;5035970;28;20106;-86
2023/11/17 00:48:31;;;;;;;7.32;5.88;;;7.00;99.90;;;;;;5053508;28;20464;-86
2023/11/17 00:50:58;;;;;;;6.65;5.20;;;7.00;99.90;;;;;;5036024;28;20036;-86
2023/11/17 00:53:29;;;;;;;7.43;5.75;;;6.90;99.90;;;;;;5036462;28;20358;-85
2023/11/17 00:55:59;;;;;;;8.65;6.00;;;6.90;99.90;;;;;;5059256;28;20202;-85
2023/11/17 00:58:25;;;;;;;8.10;6.13;;;6.90;99.90;;;;;;5072874;28;20012;-85
2023/11/17 01:00:51;;;;;;;8.85;5.80;;;6.90;99.90;;;;;;5063604;28;20206;-85
2023/11/17 01:03:20;;;;;;;7.65;5.90;;;6.90;99.90;;;;;;5052176;28;20079;-85
2023/11/17 01:05:46;;;;;;;7.97;6.35;;;6.90;99.90;;;;;;5054260;28;20029;-86
2023/11/17 01:08:12;;;;;;;8.40;5.95;;;6.90;99.90;;;;;;5051934;28;20115;-86
2023/11/17 01:10:38;;;;;;;5.70;4.90;;;6.90;99.90;;;;;;5069069;28;20549;-85
2023/11/17 01:13:05;;;;;;;7.10;5.75;;;6.90;99.90;;;;;;5072219;28;20158;-86
2023/11/17 01:15:34;;;;;;;7.70;5.13;;;6.80;99.90;;;;;;5072716;28;20027;-86
2023/11/17 01:18:01;;;;;;;8.93;5.68;;;6.80;99.90;;;;;;5077462;28;20012;-86
2023/11/17 01:20:27;;;;;;;5.82;5.07;;;6.80;99.90;;;;;;5076581;28;20021;-85
2023/11/17 01:22:55;;;;;;;6.15;5.45;;;6.80;99.90;;;;;;5061575;28;20384;-83
2023/11/17 01:25:21;;;;;;;6.78;5.97;;;6.70;99.90;;;;;;5039569;28;20415;-86
2023/11/17 01:27:47;;;;;;;7.97;5.22;;;6.70;99.90;;;;;;5059736;28;20024;-86
2023/11/17 01:30:14;;;;;;;8.90;5.93;;;6.70;99.90;;;;;;5055643;28;20025;-86
2023/11/17 01:32:40;;;;;;;5.60;5.00;;;6.70;99.90;;;;;;5039578;28;20087;-85
2023/11/17 01:35:06;;;;;;;6.47;5.22;;;6.60;99.90;;;;;;5063332;28;20020;-86
2023/11/17 01:37:32;;;;;;;7.95;5.38;;;6.60;99.90;;;;;;5055871;28;20445;-85
2023/11/17 01:40:03;;;;;;;6.68;5.53;;;6.60;99.90;;;;;;5039545;28;20128;-85
2023/11/17 01:42:34;;;;;;;7.30;5.93;;;6.60;99.90;;;;;;5076507;28;20462;-86
2023/11/17 01:44:59;;;;;;;8.85;6.35;;;6.60;99.90;;;;;;5077081;28;20031;-86
2023/11/17 01:47:25;;;;;;;7.82;6.65;;;6.50;99.90;;;;;;5039944;28;20067;-86
2023/11/17 01:49:51;;;;;;;9.35;6.20;;;6.50;99.90;;;;;;5056212;28;20029;-86
2023/11/17 01:52:18;;;;;;;11.98;7.03;;;6.50;99.90;;;;;;5056935;28;20464;-86
2023/11/17 01:54:47;;;;;;;6.97;6.28;;;6.50;99.90;;;;;;5065377;28;20020;-86
2023/11/17 01:57:12;;;;;;;7.55;6.35;;;6.50;99.90;;;;;;5100964;28;20013;-85
2023/11/17 01:59:38;;;;;;;7.47;6.57;;;6.50;99.90;;;;;;5084533;28;20056;-85
2023/11/17 02:02:04;;;;;;;7.18;6.30;;;6.50;99.90;;;;;;5077944;28;20047;-86
2023/11/17 02:04:34;;;;;;;7.10;6.15;;;6.50;99.90;;;;;;5079906;28;20047;-85
2023/11/17 02:07:20;;;;;;;10.48;6.57;;;6.50;99.90;;;;;;5075819;28;20452;-86
2023/11/17 02:10:15;;;;;;;7.85;5.95;;;6.50;99.90;;;;;;5076453;28;20024;-85
2023/11/17 02:12:52;;;;;;;7.93;6.30;;;6.40;99.90;;;;;;5075598;28;20078;-85
2023/11/17 02:15:24;;;;;;;8.15;5.63;;;6.40;99.90;;;;;;5060249;28;20033;-86
2023/11/17 02:17:54;;;;;;;;;;;6.40;99.90;;;;;;5069729;28;20024;-85
2023/11/17 02:20:25;;;;;;;7.07;6.20;;;6.40;99.90;;;;;;5074701;28;20102;-85
2023/11/17 02:22:57;;;;;;;8.57;5.82;;;6.40;99.90;;;;;;5076572;28;20480;-85
2023/11/17 02:25:44;;;;;;;7.78;6.22;;;6.40;99.90;;;;;;5074758;28;20460;-85
2023/11/17 02:28:30;;;;;;;7.57;6.57;;;6.40;99.90;;;;;;5060631;28;20025;-86
2023/11/17 02:30:58;;;;;;;7.25;6.03;;;6.40;99.90;;;;;;5054859;28;20116;-86
2023/11/17 02:33:25;;;;;;;7.93;5.97;;;6.50;99.90;;;;;;5054487;28;20021;-85
2023/11/17 02:35:57;;;;;;;8.00;6.50;;;6.50;99.90;;;;;;5072810;28;20498;-86
2023/11/17 02:38:23;;;;;;;7.13;6.40;;;6.50;99.90;;;;;;5065198;28;20025;-85
2023/11/17 02:40:55;;;;;;;7.32;6.03;;;6.50;99.90;;;;;;5067690;28;20039;-85
2023/11/17 02:43:29;;;;;;;7.35;6.22;;;6.50;99.90;;;;;;5053915;28;20082;-86
2023/11/17 02:45:55;;;;;;;10.00;6.47;;;6.50;99.90;;;;;;5049103;28;20029;-86
2023/11/17 02:48:24;;;;;;;9.13;7.07;;;6.50;99.90;;;;;;5055724;28;20082;-86
2023/11/17 02:51:05;;;;;;;8.80;6.80;;;6.50;99.90;;;;;;5071018;28;20020;-86
2023/11/17 02:53:35;;;;;;;10.07;6.38;;;6.60;99.90;;;;;;5046107;28;20029;-85
2023/11/17 02:56:01;;;;;;;7.85;6.63;;;6.50;99.90;;;;;;5054285;28;20380;-86
2023/11/17 02:58:32;;;;;;;8.60;6.40;;;6.50;99.90;;;;;;5054296;28;20102;-86
2023/11/17 03:00:59;;;;;;;7.97;6.75;;;6.60;99.90;;;;;;5074747;28;20044;-86
2023/11/17 03:03:24;;;;;;;14.30;7.05;;;6.60;99.90;;;;;;5095490;28;20489;-86
2023/11/17 03:05:59;;;;;;;9.13;7.20;;;6.60;99.90;;;;;;5060805;28;20020;-85
2023/11/17 03:08:25;;;;;;;10.40;8.55;;;6.60;99.90;;;;;;5077769;28;20309;-86
2023/11/17 03:11:02;;;;;;;14.60;7.38;;;6.50;99.90;;;;;;5078342;28;20421;-85
2023/11/17 03:13:28;;;;;;;12.32;7.40;;;6.50;99.90;;;;;;5070648;28;20032;-86
2023/11/17 03:15:54;;;;;;;10.85;8.15;;;6.50;99.90;;;;;;5065468;28;20463;-86
2023/11/17 03:18:26;;;;;;;10.63;7.03;;;6.40;99.90;;;;;;5078182;28;20453;-85
2023/11/17 03:20:56;;;;;;;;;;;6.40;99.90;;;;;;5099205;28;20026;-86
2023/11/17 03:23:22;;;;;;;14.68;8.25;;;6.40;99.90;;;;;;5081456;28;19913;-85
2023/11/17 03:25:52;;;;;;;11.38;8.35;;;6.40;99.90;;;;;;5082016;28;20019;-85
2023/11/17 03:28:18;;;;;;;17.92;8.70;;;6.40;99.90;;;;;;5079785;28;20020;-85
2023/11/17 03:30:44;;;;;;;14.02;8.95;;;6.30;99.90;;;;;;5080811;28;20029;-86
2023/11/17 03:33:11;;;;;;;15.77;9.30;;;6.30;99.90;;;;;;5041351;28;20123;-85
2023/11/17 03:35:40;;;;;;;11.73;8.50;;;6.30;99.90;;;;;;5040696;28;20517;-85
2023/11/17 03:38:08;;;;;;;12.23;8.27;;;6.30;99.90;;;;;;5057159;28;20110;-85
2023/11/17 03:40:36;;;;;;;12.98;8.38;;;6.30;99.90;;;;;;5056423;28;20464;-85
2023/11/17 03:43:05;;;;;;;12.98;8.35;;;6.30;99.90;;;;;;5040863;28;20024;-85
2023/11/17 03:45:31;;;;;;;12.82;7.97;;;6.30;99.90;;;;;;5056601;28;20032;-85
2023/11/17 03:47:57;;;;;;;12.30;8.30;;;6.40;99.90;;;;;;5057144;28;20020;-86
2023/11/17 03:50:22;;;;;;;12.43;8.63;;;6.30;99.90;;;;;;5057159;28;20115;-86
2023/11/17 03:52:48;;;;;;;12.88;8.93;;;6.30;99.90;;;;;;5041067;28;20031;-85
2023/11/17 03:55:16;;;;;;;12.65;8.27;;;6.20;99.90;;;;;;5057207;28;20464;-85
2023/11/17 03:57:44;;;;;;;10.70;7.88;;;6.20;99.90;;;;;;5041081;28;20468;-85
2023/11/17 04:00:12;;;;;;;11.93;8.13;;;6.30;99.90;;;;;;5041019;28;20480;-86
2023/11/17 04:02:38;;;;;;;10.55;7.97;;;6.20;99.90;;;;;;5023996;28;20060;-86
2023/11/17 04:05:04;;;;;;;6.97;5.50;;;6.20;99.90;;;;;;5057248;28;20051;-85
2023/11/17 04:07:30;;;;;;;7.50;6.25;;;6.20;99.90;;;;;;5057151;28;20103;-85
2023/11/17 04:09:57;;;;;;;8.10;6.47;;;6.20;99.90;;;;;;5057242;28;20097;-86
2023/11/17 04:12:24;;;;;;;10.05;6.97;;;6.20;99.90;;;;;;5040251;28;20025;-86
2023/11/17 04:14:50;;;;;;;9.07;7.10;;;6.20;99.90;;;;;;5024342;28;20083;-85
2023/11/17 04:17:18;;;;;;;10.40;7.43;;;6.30;99.90;;;;;;5056866;28;20020;-85
2023/11/17 04:19:44;;;;;;;8.48;7.00;;;6.30;99.90;;;;;;5040541;28;20035;-86
2023/11/17 04:22:10;;;;;;;9.38;7.57;;;6.30;99.90;;;;;;5056764;28;20024;-86
2023/11/17 04:24:37;;;;;;;9.50;7.65;;;6.30;99.90;;;;;;5056294;28;20387;-86
2023/11/17 04:27:05;;;;;;;10.65;7.93;;;6.30;99.90;;;;;;5057056;28;20106;-85
2023/11/17 04:29:31;;;;;;;9.68;7.32;;;6.30;99.90;;;;;;5056505;28;20108;-85
2023/11/17 04:31:56;;;;;;;9.60;7.53;;;6.30;99.90;;;;;;5056737;28;20055;-86
2023/11/17 04:34:22;;;;;;;17.40;7.28;;;6.40;99.90;;;;;;5039084;28;20373;-86
2023/11/17 04:36:48;;;;;;;10.00;7.63;;;6.30;99.90;;;;;;5056377;28;20498;-86
2023/11/17 04:39:24;;;;;;;11.70;6.90;;;6.30;99.90;;;;;;5056699;28;20082;-86
2023/11/17 04:41:50;;;;;;;12.63;7.22;;;6.40;99.90;;;;;;5056909;28;20032;-86
2023/11/17 04:44:19;;;;;;;16.73;8.43;;;6.40;99.90;;;;;;5057718;28;20059;-86
2023/11/17 04:46:45;;;;;;;9.88;7.88;;;6.40;99.90;;;;;;5061029;28;20197;-85
2023/11/17 04:49:12;;;;;;;10.45;7.88;;;6.40;99.90;;;;;;5064184;28;20012;-85
2023/11/17 04:51:42;;;;;;;9.40;7.72;;;6.40;99.90;;;;;;5075188;28;20055;-86
2023/11/17 04:54:08;;;;;;;9.23;7.43;;;6.40;99.90;;;;;;5069928;28;20044;-85
2023/11/17 04:56:34;;;;;;;13.88;7.47;;;6.40;99.90;;;;;;5041232;28;20483;-86
2023/11/17 04:58:59;;;;;;;9.80;6.80;;;6.40;99.90;;;;;;5053330;28;20024;-85
2023/11/17 05:01:26;;;;;;;8.82;7.45;;;6.40;99.90;;;;;;5059598;28;20052;-85
2023/11/17 05:03:53;;;;;;;12.98;6.53;;;6.40;99.90;;;;;;5076458;28;20463;-86
2023/11/17 05:06:23;;;;;;;13.30;7.53;;;6.40;99.90;;;;;;5060062;28;20032;-86
2023/11/17 05:08:49;;;;;;;10.70;7.50;;;6.40;99.90;;;;;;5076727;28;20024;-85
2023/11/17 05:11:18;;;;;;;13.35;7.30;;;6.50;99.90;;;;;;5074493;28;20024;-85
2023/11/17 05:13:43;;;;;;;10.20;7.00;;;6.50;99.90;;;;;;5063256;28;20038;-86
2023/11/17 05:16:12;;;;;;;8.88;7.03;;;6.50;99.90;;;;;;5076319;28;20103;-86
2023/11/17 05:18:37;;;;;;;11.68;7.45;;;6.50;99.90;;;;;;5045712;28;20032;-86
2023/11/17 05:21:06;;;;;;;12.02;6.97;;;6.50;99.90;;;;;;5039352;28;20503;-85
2023/11/17 05:23:34;;;;;;;8.00;7.20;;;6.40;99.90;;;;;;5055423;28;20064;-86
2023/11/17 05:26:03;;;;;;;8.32;6.93;;;6.50;99.90;;;;;;5055484;28;20021;-85
2023/11/17 05:28:28;;;;;;;10.48;7.70;;;6.50;99.90;;;;;;5072168;28;20028;-86
2023/11/17 05:31:02;;;;;;;8.60;7.65;;;6.40;99.90;;;;;;5093126;28;20383;-86
2023/11/17 05:33:29;;;;;;;8.85;7.13;;;6.40;99.90;;;;;;5075650;28;20028;-86
2023/11/17 05:35:56;;;;;;;8.07;6.90;;;6.40;99.90;;;;;;5074507;28;20052;-86
2023/11/17 05:38:28;;;;;;;8.10;6.78;;;6.40;99.90;;;;;;5024178;28;20415;-86
2023/11/17 05:40:57;;;;;;;12.65;8.20;;;6.40;99.90;;;;;;5065139;28;20033;-86
2023/11/17 05:43:25;;;;;;;12.82;7.72;;;6.40;99.90;;;;;;5072115;28;20372;-85
2023/11/17 05:45:53;;;;;;;8.65;7.43;;;6.50;99.90;;;;;;5054530;28;20032;-85
2023/11/17 05:48:21;;;;;;;12.00;7.63;;;6.50;99.90;;;;;;5065796;28;20025;-84
2023/11/17 05:50:46;;;;;;;12.82;8.25;;;6.50;99.90;;;;;;5037930;28;20110;-86
2023/11/17 05:53:12;;;;;;;9.25;7.28;;;6.60;99.90;;;;;;5054923;28;20063;-86
2023/11/17 05:55:41;;;;;;;8.48;7.55;;;6.60;99.90;;;;;;5037991;28;20048;-86
2023/11/17 05:58:07;;;;;;;12.73;7.65;;;6.60;99.90;;;;;;5063906;28;20021;-85
2023/11/17 06:00:33;;;;;;;8.43;7.53;;;6.60;99.90;;;;;;5054672;28;20024;-86
2023/11/17 06:02:59;;;;;;;11.63;6.85;;;6.60;99.90;;;;;;5055441;28;20045;-86
2023/11/17 06:05:25;;;;;;;8.90;6.70;;;6.60;99.90;;;;;;5025922;28;20039;-86
2023/11/17 06:07:51;;;;;;;8.85;6.65;;;6.60;99.90;;;;;;5070337;28;20416;-85
2023/11/17 06:10:17;;;;;;;8.55;7.65;;;6.60;99.90;;;;;;5081709;28;20048;-86
2023/11/17 06:12:42;;;;;;;6.70;6.10;;;6.50;99.90;;;;;;5099001;28;20029;-85
2023/11/17 06:15:11;;;;;;;7.75;6.95;;;6.60;99.90;;;;;;5080063;28;20020;-85
2023/11/17 06:17:36;;;;;;;11.27;6.95;;;6.60;99.90;;;;;;5086151;28;20024;-85
2023/11/17 06:20:03;;;;;;;9.27;7.50;;;6.60;99.90;;;;;;5090673;28;20183;-85
2023/11/17 06:22:30;;;;;;;7.72;6.93;;;6.60;99.90;;;;;;5076065;28;20025;-84
2023/11/17 06:24:56;;;;;;;7.65;6.85;;;6.60;99.90;;;;;;5043118;28;20039;-85
2023/11/17 06:27:23;;;;;;;10.80;7.30;;;6.50;99.90;;;;;;5072649;28;20028;-85
2023/11/17 06:29:51;;;;;;;8.13;7.28;;;6.50;99.90;;;;;;5078022;28;20027;-85
2023/11/17 06:32:17;;;;;;;7.13;6.43;;;6.50;99.90;;;;;;5078039;28;20034;-85
2023/11/17 06:34:43;;;;;;;9.27;7.63;;;6.50;99.90;;;;;;5095845;28;20527;-86
2023/11/17 06:37:12;;;;;;;8.07;6.88;;;6.60;99.90;;;;;;5078272;28;20467;-86
2023/11/17 06:39:40;;;;;;;7.72;6.90;;;6.60;99.90;;;;;;5077623;28;20024;-86
2023/11/17 06:42:07;;;;;;;8.10;6.80;;;6.60;99.90;;;;;;5077840;28;20016;-85
2023/11/17 06:44:33;;;;;;;9.30;7.57;;;6.60;99.90;;;;;;5061393;28;20028;-85
2023/11/17 06:46:59;;;;;;;10.10;7.60;;;6.60;99.90;;;;;;5061281;28;20035;-85
2023/11/17 06:49:27;;;;;;;9.50;7.40;;;6.60;99.90;;;;;;5044730;28;20032;-85
2023/11/17 06:51:52;;;;;;;7.93;6.95;;;6.60;99.90;;;;;;5061421;28;20039;-86
2023/11/17 06:54:21;;;;;;;8.75;7.45;;;6.60;99.90;;;;;;5044778;28;20028;-86
2023/11/17 06:56:47;;;;;;;8.02;7.10;;;6.60;99.90;;;;;;5077716;28;20032;-85
2023/11/17 06:59:18;;;;;;;8.20;7.30;;;6.60;99.90;;;;;;5077512;28;20429;-86
2023/11/17 07:01:46;;;;;;;8.45;7.35;;;6.60;99.90;;;;;;5040765;28;20581;-85
2023/11/17 07:04:12;;;;;;;8.25;7.15;;;6.70;99.90;;;;;;5057572;28;20035;-85
2023/11/17 07:06:39;;;;;;;9.02;7.32;;;6.70;99.90;;;;;;5057701;28;20020;-85
2023/11/17 07:09:16;;;;;;;8.30;7.03;;;6.70;99.90;;;;;;5074149;28;20110;-86
2023/11/17 07:11:46;;;;;;;8.27;7.38;;;6.70;99.90;;;;;;5073826;28;20017;-86
2023/11/17 07:14:19;;;;;;;9.63;7.65;;;6.70;99.90;;;;;;5073700;28;20111;-85
2023/11/17 07:16:46;;;;;;;8.05;7.25;;;6.80;99.90;;;;;;5058092;28;20063;-86
2023/11/17 07:19:15;;;;;;;8.23;6.93;;;6.80;99.90;;;;;;5073841;28;20043;-86
2023/11/17 07:21:42;;;;;;;7.38;6.55;;;6.80;99.90;;;;;;5073540;28;20024;-86
2023/11/17 07:24:10;;;;;;;8.10;7.30;;;6.80;99.90;;;;;;5073926;28;20031;-86
2023/11/17 07:26:38;;;;;;;8.98;8.00;;;6.80;99.90;;;;;;5073646;28;20062;-85
2023/11/17 07:29:06;;;;;;;8.57;7.72;;;6.80;99.90;;;;;;5057151;28;20036;-86
2023/11/17 07:31:40;;;;;;;9.05;8.00;;;6.80;99.90;;;;;;5057512;28;20075;-86
2023/11/17 07:34:07;;;;;;;8.70;7.80;;;6.80;99.90;;;;;;5074789;28;20032;-86
2023/11/17 07:36:39;;;;;;;7.78;6.97;;;6.80;99.90;;;;;;5061579;28;20035;-86
2023/11/17 07:39:06;;;;;;;7.72;6.93;;;6.80;99.90;;;;;;5091275;28;20024;-86
2023/11/17 07:41:33;;;;;;;7.82;7.03;;;6.80;99.90;;;;;;5098416;28;20029;-84
2023/11/17 07:44:03;;;;;;;8.48;7.35;;;6.80;99.90;;;;;;5098615;28;20020;-85
2023/11/17 07:46:29;;;;;;;8.27;6.97;;;6.80;99.90;;;;;;5092951;28;20122;-85
2023/11/17 07:48:55;;;;;;;8.25;7.22;;;6.70;99.90;;;;;;5075666;28;20468;-85
2023/11/17 07:51:21;;;;;;;7.80;6.70;;;6.70;99.90;;;;;;5057279;28;20423;-85
2023/11/17 07:53:49;;;;;;;7.65;6.85;;;6.70;99.90;;;;;;5056614;28;20078;-85
2023/11/17 07:56:15;;;;;;;7.63;6.88;;;6.70;99.90;;;;;;5074361;28;20024;-85
2023/11/17 07:58:44;;;;;;;7.82;7.03;;;6.70;99.90;;;;;;5072933;28;20025;-85
2023/11/17 08:01:10;;;;;;;7.07;6.38;;;6.70;99.90;;;;;;5073106;28;20446;-85
2023/11/17 08:03:37;;;;;;;7.57;6.88;;;6.80;99.90;;;;;;5073299;28;20036;-86
2023/11/17 08:06:06;;;;;;;7.38;6.55;;;6.80;99.90;;;;;;5071178;28;20105;-85
2023/11/17 08:08:32;;;;;;;7.00;6.30;;;6.80;99.90;;;;;;5074177;28;20051;-85
2023/11/17 08:11:01;;;;;;;7.55;6.72;;;6.80;99.90;;;;;;5068916;28;20021;-85
2023/11/17 08:13:27;;;;;;;10.02;7.45;;;6.90;99.90;;;;;;5053098;28;20021;-85
2023/11/17 08:15:54;;;;;;;9.25;6.97;;;6.90;99.90;;;;;;5052305;28;20495;-85
2023/11/17 08:18:21;;;;;;;8.57;7.03;;;6.90;99.90;;;;;;5056608;28;20028;-86
2023/11/17 08:20:47;;;;;;;8.20;6.88;;;6.90;99.90;;;;;;5052044;28;20492;-85
2023/11/17 08:23:18;;;;;;;7.35;6.60;;;6.90;99.90;;;;;;5051960;28;20113;-85
2023/11/17 08:25:45;;;;;;;8.73;6.45;;;7.00;99.90;;;;;;5072904;28;20025;-85
2023/11/17 08:28:11;;;;;;;8.68;7.00;;;7.00;99.90;;;;;;5056339;28;20035;-85
2023/11/17 08:30:37;;;;;;;7.07;6.38;;;7.10;99.90;;;;;;5072149;28;20082;-85
2023/11/17 08:33:07;;;;;;;7.10;6.25;;;7.10;99.90;;;;;;5072041;28;20024;-85
2023/11/17 08:35:35;;;;;;;7.80;6.43;;;7.20;99.90;;;;;;5055822;28;20033;-86
2023/11/17 08:38:01;;;;;;;7.30;6.57;;;7.20;99.90;;;;;;5072131;28;20021;-85
2023/11/17 08:40:27;;;;;;;6.85;6.03;;;7.20;99.90;;;;;;5063817;28;20033;-85
2023/11/17 08:42:53;;;;;;;7.03;6.32;;;7.20;99.90;;;;;;5059134;28;20029;-85
2023/11/17 08:45:19;;;;;;;7.93;7.00;;;7.30;99.90;;;;;;5050383;28;20032;-85
2023/11/17 08:47:50;;;;;;;7.40;6.60;;;7.30;99.90;;;;;;5067852;28;20055;-85
2023/11/17 08:50:16;;;;;;;6.72;6.03;;;7.40;99.90;;;;;;5065114;28;20082;-85
2023/11/17 08:52:45;;;;;;;6.30;5.70;;;7.40;99.90;;;;;;5052490;28;20020;-85
2023/11/17 08:55:16;;;;;;;6.80;6.10;;;7.40;99.90;;;;;;5055015;28;20021;-85
2023/11/17 08:57:44;;;;;;;;;;;7.40;99.90;;;;;;5057715;28;20031;-85
2023/11/17 09:00:14;;;;;;;6.65;5.95;;;7.50;99.90;;;;;;5073413;28;20255;-85
2023/11/17 09:02:41;;;;;;;6.95;6.25;;;7.50;99.90;;;;;;5066048;28;20090;-85
2023/11/17 09:05:11;;;;;;;7.53;6.65;;;7.50;99.90;;;;;;5073387;28;20088;-86
2023/11/17 09:07:41;;;;;;;7.70;6.90;;;7.50;99.90;;;;;;5076237;28;20036;-85
2023/11/17 09:10:11;;;;;;;9.25;7.72;;;7.50;99.90;;;;;;5075235;28;20021;-85
2023/11/17 09:12:42;;;;;;;8.93;8.02;;;7.60;99.90;;;;;;5060985;28;20024;-84
2023/11/17 09:15:09;;;;;;;8.70;7.53;;;7.60;99.90;;;;;;5052515;28;20056;-83
2023/11/17 09:17:40;;;;;;;8.32;7.35;;;7.60;99.90;;;;;;5047625;28;20115;-85
2023/11/17 09:20:10;;;;;;;9.15;8.13;;;7.70;99.90;;;;;;5051899;28;20040;-85
2023/11/17 09:22:36;;;;;;;10.18;8.60;;;7.70;99.90;;;;;;5051789;28;20025;-85
2023/11/17 09:25:17;;;;;;;11.00;8.85;;;7.80;99.90;;;;;;5051537;28;20017;-85
2023/11/17 09:27:54;;;;;;;11.95;9.52;;;7.80;99.90;;;;;;5043837;28;20371;-85
2023/11/17 09:30:21;;;;;;;11.13;9.93;;;7.90;99.90;;;;;;5054445;28;20029;-85
2023/11/17 09:32:54;;;;;;;12.85;9.52;;;7.90;99.90;;;;;;5062648;28;20039;-88
2023/11/17 09:35:21;;;;;;;12.38;10.15;;;8.00;99.90;;;;;;5070065;28;20024;-88
2023/11/17 09:37:53;;;;;;;11.68;10.38;;;8.00;99.90;;;;;;5058021;28;20040;-88
2023/11/17 09:40:23;;;;;;;14.27;11.10;;;8.10;99.90;;;;;;5073869;28;20534;-88
2023/11/17 09:42:55;;;;;;;14.50;10.43;;;8.10;99.90;;;;;;5071112;28;20098;-87
2023/11/17 09:45:24;;;;;;;13.20;11.35;;;8.10;99.90;;;;;;5073396;28;20056;-86
2023/11/17 09:47:54;;;;;;;12.70;10.95;;;8.20;99.90;;;;;;5053009;28;20029;-87
2023/11/17 09:50:24;;;;;;;13.88;11.23;;;8.20;99.90;;;;;;5060544;28;20048;-87
2023/11/17 09:52:52;;;;;;;13.80;11.85;;;8.30;99.90;;;;;;5055021;28;20361;-87
2023/11/17 09:55:21;;;;;;;15.00;12.32;;;8.30;99.90;;;;;;5070379;28;20344;-87
2023/11/17 09:57:54;;;;;;;14.13;11.18;;;8.40;99.90;;;;;;5052256;28;20123;-86
2023/11/17 10:00:27;;;;;;;14.82;13.00;;;8.40;99.90;;;;;;5071070;28;20040;-86
2023/11/17 10:02:59;;;;;;;18.55;12.98;;;8.50;99.90;;;;;;5068426;28;20161;-86
2023/11/17 10:05:30;;;;;;;13.23;11.60;;;8.50;99.90;;;;;;5069231;28;20711;-87
2023/11/17 10:08:00;;;;;;;15.63;11.82;;;8.50;99.90;;;;;;5062320;28;20028;-87
2023/11/17 10:10:27;;;;;;;13.90;12.10;;;8.60;99.90;;;;;;5071125;28;20123;-86
2023/11/17 10:13:00;;;;;;;15.05;11.43;;;8.60;99.90;;;;;;5063029;28;20021;-86
2023/11/17 10:15:31;;;;;;;16.45;12.95;;;8.70;99.90;;;;;;5060776;28;20029;-87
2023/11/17 10:18:12;;;;;;;15.20;13.00;;;8.70;99.90;;;;;;5060131;28;20456;-86
2023/11/17 10:20:41;;;;;;;14.43;12.15;;;8.80;99.90;;;;;;5068144;28;20029;-87
2023/11/17 10:23:07;;;;;;;14.05;12.57;;;8.80;99.90;;;;;;5068385;28;20036;-87
2023/11/17 10:25:34;;;;;;;14.60;12.65;;;8.80;99.90;;;;;;5059369;28;20472;-89
2023/11/17 10:28:08;;;;;;;14.93;12.18;;;8.90;99.90;;;;;;5070170;28;20016;-88
2023/11/17 10:30:37;;;;;;;14.15;12.13;;;8.90;99.90;;;;;;5049271;28;20053;-86
2023/11/17 10:33:24;;;;;;;15.15;12.02;;;9.00;99.90;;;;;;5074246;28;20021;-88
2023/11/17 10:36:12;;;;;;;14.05;11.68;;;9.00;99.90;;;;;;5087855;28;20016;-87
2023/11/17 10:38:45;;;;;;;13.95;11.98;;;9.00;99.90;;;;;;5090925;28;20009;-85
2023/11/17 10:41:24;;;;;;;16.17;12.48;;;9.10;99.90;;;;;;5087321;28;20052;-86
2023/11/17 10:43:52;;;;;;;15.50;11.82;;;9.10;99.90;;;;;;5062656;28;20032;-88
2023/11/17 10:46:24;;;;;;;14.60;11.73;;;9.10;99.90;;;;;;5057601;28;20033;-88
2023/11/17 10:48:51;;;;;;;14.45;11.63;;;9.20;99.90;;;;;;5076593;28;20082;-86
2023/11/17 10:51:37;;;;;;;;;;;;;;;;;;;;;
2023/11/17 10:54:11;;;;;;;14.73;11.07;;;9.30;99.90;;;;;;5067042;28;20029;-86
2023/11/17 10:56:38;;;;;;;12.40;10.02;;;9.30;99.90;;;;;;5064282;28;20384;-86
2023/11/17 10:59:08;;;;;;;12.65;10.93;;;9.40;99.90;;;;;;5057599;28;20036;-85
2023/11/17 11:01:36;;;;;;;12.10;9.82;;;9.40;99.90;;;;;;5051342;28;20349;-86
2023/11/17 11:04:09;;;;;;;14.07;9.82;;;9.50;99.90;;;;;;5066247;28;20079;-88
2023/11/17 11:06:38;;;;;;;13.90;10.57;;;9.60;99.90;;;;;;5051307;28;20115;-85
2023/11/17 11:09:05;;;;;;;14.95;10.93;;;9.60;99.90;;;;;;5052456;28;20087;-87
2023/11/17 11:11:35;;;;;;;11.55;9.73;;;9.70;99.90;;;;;;5061677;28;20040;-87
2023/11/17 11:14:04;;;;;;;8.93;7.32;;;9.80;99.90;;;;;;5062191;28;20525;-84
2023/11/17 11:16:32;;;;;;;8.57;7.68;;;9.80;99.90;;;;;;5064049;28;20478;-88
2023/11/17 11:18:59;;;;;;;10.32;7.93;;;9.90;99.90;;;;;;5060893;28;20025;-85
2023/11/17 11:21:29;;;;;;;7.70;6.60;;;9.90;99.90;;;;;;5056719;28;20136;-87
2023/11/17 11:23:59;;;;;;;8.32;6.97;;;9.90;99.90;;;;;;5065114;28;20052;-87
2023/11/17 11:26:30;;;;;;;7.45;5.75;;;10.00;99.90;;;;;;5053624;28;20025;-87
2023/11/17 11:28:58;;;;;;;7.03;5.80;;;10.00;99.90;;;;;;5064493;28;20171;-87
2023/11/17 11:31:27;;;;;;;6.93;5.72;;;10.00;99.90;;;;;;5054795;28;20035;-86
2023/11/17 11:33:53;;;;;;;5.57;4.82;;;10.10;99.90;;;;;;5061371;28;20568;-86
2023/11/17 11:36:18;;;;;;;5.97;5.15;;;10.10;99.90;;;;;;5062978;28;20107;-87
2023/11/17 11:38:49;;;;;;;6.63;5.28;;;10.10;99.90;;;;;;5066377;28;20027;-86
2023/11/17 11:41:22;;;;;;;7.33;5.80;;;10.10;99.90;;;;;;5061637;28;20460;-85
2023/11/17 11:43:51;;;;;;;6.55;4.88;;;10.20;99.90;;;;;;5063725;28;20290;-88
2023/11/17 11:46:20;;;;;;;8.07;5.45;;;10.20;99.90;;;;;;5067527;28;20036;-89
2023/11/17 11:49:11;;;;;;;5.60;4.90;;;10.30;99.90;;;;;;5056658;28;20082;-87
2023/11/17 11:51:53;;;;;;;6.25;5.15;;;10.30;99.90;;;;;;5055766;28;20107;-87
2023/11/17 11:54:23;;;;;;;5.40;4.70;;;10.40;99.90;;;;;;5064820;28;20041;-89
2023/11/17 11:57:11;;;;;;;6.15;5.18;;;10.40;99.90;;;;;;5049643;28;20032;-88
2023/11/17 11:59:40;;;;;;;7.70;6.28;;;10.50;99.90;;;;;;5064685;28;20537;-88
2023/11/17 12:02:06;;;;;;;7.25;5.80;;;10.60;99.90;;;;;;5059589;28;20059;-87
2023/11/17 12:04:37;;;;;;;7.88;6.07;;;10.60;99.90;;;;;;5065854;28;20093;-88
2023/11/17 12:07:31;;;;;;;6.70;5.50;;;10.60;99.90;;;;;;5087511;28;20029;-85
2023/11/17 12:10:00;;;;;;;7.05;4.97;;;10.60;99.90;;;;;;5076420;28;20275;-87
2023/11/17 12:12:28;;;;;;;6.28;4.80;;;10.60;99.90;;;;;;5079985;28;20045;-87
2023/11/17 12:14:57;;;;;;;4.63;4.00;;;10.70;99.90;;;;;;5069840;28;20344;-86
2023/11/17 12:17:30;;;;;;;5.57;4.00;;;10.70;99.90;;;;;;5071919;28;20466;-86
2023/11/17 12:20:24;;;;;;;4.78;3.95;;;10.70;99.90;;;;;;5063606;28;20448;-88
2023/11/17 12:23:01;;;;;;;4.55;3.78;;;10.80;99.90;;;;;;5068563;28;20028;-88
2023/11/17 12:25:28;;;;;;;4.50;3.30;;;10.80;99.90;;;;;;5064902;28;20365;-88
2023/11/17 12:27:58;;;;;;;4.30;3.10;;;10.80;99.90;;;;;;5068749;28;20028;-87
2023/11/17 12:30:27;;;;;;;3.58;3.13;;;10.90;99.90;;;;;;5072128;28;20024;-88
2023/11/17 12:32:55;;;;;;;3.38;2.78;;;10.90;99.90;;;;;;5065990;28;20028;-89
2023/11/17 12:35:24;;;;;;;2.60;2.20;;;10.90;99.90;;;;;;5053685;28;20020;-88
2023/11/17 12:37:51;;;;;;;3.50;2.05;;;10.90;99.90;;;;;;5061090;28;20024;-87
2023/11/17 12:40:22;;;;;;;2.72;2.17;;;10.90;99.90;;;;;;5085070;28;20499;-89
2023/11/17 12:42:50;;;;;;;2.35;1.92;;;10.90;99.90;;;;;;5046695;28;20077;-87
2023/11/17 12:45:19;;;;;;;2.20;2.00;;;10.90;99.90;;;;;;5059775;28;20028;-87
2023/11/17 12:47:47;;;;;;;2.17;1.98;;;10.90;99.90;;;;;;5055628;28;20037;-88
2023/11/17 12:50:13;;;;;;;2.75;2.10;;;10.80;99.90;;;;;;5068309;28;20028;-87
2023/11/17 12:52:55;;;;;;;3.53;2.00;;;10.80;99.90;;;;;;5077922;28;20017;-87
2023/11/17 12:55:23;;;;;;;2.90;2.10;;;10.80;99.90;;;;;;5080522;28;20009;-84
2023/11/17 12:57:49;;;;;;;2.42;2.22;;;10.80;99.90;;;;;;5096194;28;20087;-85
2023/11/17 13:00:16;;;;;;;2.63;2.30;;;10.70;99.90;;;;;;5094826;28;20037;-86
2023/11/17 13:02:43;;;;;;;3.83;2.60;;;10.70;99.90;;;;;;5074057;28;20072;-87